Flight Track Log - Related Links

Times and Time Zones

All times are in EDT time to prevent confusion due to time zone crossing. See the SWA558 flight status page for this flight to view local times or setup timezone preferences in your user account.

Time Position Orientation Groundspeed Altitude Reporting Facility
EDT Latitude Longitude Course Direction KTS MPH feet Rate Location/Type
Mon 03:44:13 PM 41.7167 -87.8167 217° Southwest 219 252 3,800  Level Chicago TRACON
Mon 03:45:53 PM 41.6433 -87.9044 222° Southwest 234 269 10,300 3,481 Climbing Chicago Center
Mon 03:46:55 PM 41.5892 -87.9678 221° Southwest 254 292 13,200 2,710 Climbing Chicago Center
Mon 03:47:57 PM 41.5261 -88.0400 221° Southwest 295 339 15,900 3,242 Climbing Chicago Center
Mon 03:48:59 PM 41.4500 -88.1272 221° Southwest 311 358 19,900 2,952 Climbing Chicago Center
Mon 03:50:01 PM 41.3769 -88.1933 214° Southwest 332 382 22,000 1,984 Climbing Chicago Center
Mon 03:51:03 PM 41.2839 -88.2344 198° South 357 411 24,000 1,756 Climbing Chicago Center
Mon 03:52:04 PM 41.2017 -88.3028 212° Southwest 348 400 25,600 1,463 Climbing Chicago Center
Mon 03:53:06 PM 41.1217 -88.3806 216° Southwest 356 410 27,000 1,355 Climbing Chicago Center
Mon 03:54:08 PM 41.0247 -88.4744 216° Southwest 361 415 28,400 1,258 Climbing Chicago Center
Mon 03:55:10 PM 40.9408 -88.5564 216° Southwest 371 427 29,600 1,210 Climbing Chicago Center
Mon 03:56:12 PM 40.8508 -88.6417 216° Southwest 392 451 30,900 1,548 Climbing Chicago Center
Mon 03:57:14 PM 40.7603 -88.7281 216° Southwest 402 463 32,800 1,645 Climbing Chicago Center
Mon 03:58:16 PM 40.6714 -88.8142 216° Southwest 400 460 34,300 1,645 Climbing Chicago Center
Mon 03:59:18 PM 40.5650 -88.9133 215° Southwest 397 457 36,200 1,694 Climbing Chicago Center
Mon 04:00:20 PM 40.4775 -88.9975 216° Southwest 392 451 37,800 823 Climbing Chicago Center
Mon 04:01:22 PM 40.3897 -89.0803 216° Southwest 389 448 37,900 48 Climbing Chicago Center
Mon 04:02:24 PM 40.3047 -89.1594 215° Southwest 376 433 37,900  Level Chicago Center
Mon 04:03:26 PM 40.2172 -89.2400 215° Southwest 381 438 37,900  Level Chicago Center
Mon 04:04:28 PM 40.1294 -89.3236 216° Southwest 385 443 37,900  Level Chicago Center
Mon 04:05:30 PM 40.0417 -89.4064 216° Southwest 387 445 37,900  Level Chicago Center
Mon 04:06:32 PM 39.9592 -89.4953 220° Southwest 384 442 37,900  Level Chicago Center
Mon 04:07:34 PM 39.8625 -89.6067 222° Southwest 385 443 37,900  Level Chicago Center
Mon 04:08:36 PM 39.7803 -89.6997 221° Southwest 386 444 37,900 49 Level Kansas City Center
Mon 04:09:37 PM 39.7200 -89.8117 235° Southwest 381 438 38,000  Climbing Kansas City Center
Mon 04:10:40 PM 39.6581 -89.9256 235° Southwest 378 435 37,900 -48 Descending Kansas City Center
Mon 04:11:41 PM 39.5969 -90.0367 235° Southwest 379 436 37,900  Level Kansas City Center
Mon 04:12:44 PM 39.5275 -90.1406 229° Southwest 385 443 37,900  Level Kansas City Center
Mon 04:13:46 PM 39.4408 -90.2239 217° Southwest 390 449 37,900  Level Kansas City Center
Mon 04:14:46 PM 39.3564 -90.3081 218° Southwest 388 447 37,900  Level Kansas City Center
Mon 04:15:50 PM 39.2539 -90.4089 217° Southwest 388 447 37,900  Level Kansas City Center
Mon 04:16:51 PM 39.1683 -90.4925 217° Southwest 388 447 37,900  Level Kansas City Center
Mon 04:17:53 PM 39.0831 -90.5764 217° Southwest 387 445 37,900  Level Kansas City Center
Mon 04:18:54 PM 38.9969 -90.6600 217° Southwest 390 449 37,900  Level Kansas City Center
Mon 04:19:58 PM 38.9133 -90.7417 217° Southwest 384 442 37,900  Level Kansas City Center
Mon 04:20:58 PM 38.8092 -90.8417 217° Southwest 391 450 37,900  Level Kansas City Center
Mon 04:22:02 PM 38.7236 -90.9225 216° Southwest 389 448 37,900  Level Kansas City Center
Mon 04:23:02 PM 38.6372 -91.0053 217° Southwest 390 449 37,900  Level Kansas City Center
Mon 04:24:06 PM 38.5492 -91.0900 217° Southwest 396 456 37,900  Level Kansas City Center
Mon 04:25:08 PM 38.4619 -91.1725 217° Southwest 395 455 37,900  Level Kansas City Center
Mon 04:26:08 PM 38.3572 -91.2714 217° Southwest 393 452 37,900  Level Kansas City Center
Mon 04:27:12 PM 38.2669 -91.3536 216° Southwest 402 463 37,900  Level Kansas City Center
Mon 04:28:13 PM 38.1853 -91.4303 216° Southwest 389 448 37,900  Level Kansas City Center
Mon 04:29:17 PM 38.0961 -91.5150 217° Southwest 393 452 37,900  Level Kansas City Center
Mon 04:30:17 PM 37.9922 -91.6133 217° Southwest 387 445 37,900  Level Kansas City Center
Mon 04:31:21 PM 37.9031 -91.6947 216° Southwest 388 447 37,900  Level Kansas City Center
Mon 04:32:21 PM 37.8167 -91.7764 217° Southwest 386 444 37,900  Level Kansas City Center
Mon 04:33:23 PM 37.7292 -91.8586 217° Southwest 385 443 37,900  Level Kansas City Center
Mon 04:34:24 PM 37.6394 -91.9414 216° Southwest 389 448 37,900  Level Kansas City Center
Mon 04:35:28 PM 37.5503 -92.0264 217° Southwest 395 455 37,900  Level Kansas City Center
Mon 04:36:31 PM 37.4606 -92.1078 216° Southwest 394 453 37,900  Level Kansas City Center
Mon 04:37:31 PM 37.3722 -92.1903 217° Southwest 393 452 37,900  Level Kansas City Center
Mon 04:38:35 PM 37.2653 -92.2875 216° Southwest 392 451 37,900  Level Kansas City Center
Mon 04:39:36 PM 37.1767 -92.3686 216° Southwest 391 450 37,900  Level Kansas City Center
Mon 04:40:39 PM 37.0897 -92.4486 216° Southwest 388 447 37,900  Level Kansas City Center
Mon 04:41:40 PM 37.0017 -92.5275 216° Southwest 388 447 37,900  Level Kansas City Center
Mon 04:42:41 PM 36.9128 -92.6081 216° Southwest 389 448 37,900  Level Kansas City Center
Mon 04:43:45 PM 36.8239 -92.6889 216° Southwest 391 450 37,900  Level Kansas City Center
Mon 04:44:06 PM 36.7867 -92.7222 216° Southwest 410 472 37,900  Level Memphis Center
Mon 04:45:06 PM 36.6975 -92.8025 216° Southwest 410 472 37,900  Level Memphis Center
Mon 04:46:06 PM 36.6083 -92.8797 215° Southwest 410 472 37,900  Level Memphis Center
Mon 04:47:06 PM 36.5214 -92.9597 216° Southwest 410 472 37,900  Level Memphis Center
Mon 04:48:06 PM 36.4322 -93.0394 216° Southwest 410 472 37,900  Level Memphis Center
Mon 04:49:06 PM 36.3450 -93.1192 216° Southwest 410 472 37,900  Level Memphis Center
Mon 04:50:06 PM 36.2558 -93.1933 214° Southwest 404 465 37,900  Level Memphis Center
Mon 04:51:06 PM 36.1683 -93.2700 215° Southwest 399 459 37,900  Level Memphis Center
Mon 04:52:06 PM 36.0811 -93.3464 215° Southwest 393 452 37,900  Level Memphis Center
Mon 04:53:06 PM 35.9939 -93.4253 216° Southwest 393 452 37,900  Level Memphis Center
Mon 04:54:06 PM 35.9042 -93.5014 215° Southwest 393 452 37,900  Level Memphis Center
Mon 04:55:06 PM 35.8167 -93.5800 216° Southwest 388 447 37,900  Level Memphis Center
Mon 04:56:06 PM 35.7250 -93.6583 215° Southwest 393 452 37,900  Level Memphis Center
Mon 04:57:06 PM 35.6333 -93.7364 215° Southwest 393 452 37,900  Level Memphis Center
Mon 04:58:06 PM 35.5478 -93.8144 217° Southwest 393 452 37,900  Level Memphis Center
Mon 04:59:06 PM 35.4558 -93.8897 214° Southwest 393 452 37,900  Level Memphis Center
Mon 05:00:06 PM 35.3642 -93.9672 215° Southwest 393 452 37,900 50 Level Memphis Center
Mon 05:01:06 PM 35.2761 -94.0450 216° Southwest 393 452 38,000  Climbing Memphis Center
Mon 05:02:06 PM 35.1864 -94.1222 215° Southwest 393 452 37,900 -36 Descending Memphis Center
Mon 05:03:51 PM 35.0183 -94.2650 215° Southwest 386 444 37,900 36 Level Fort Worth Center
Mon 05:04:51 PM 34.9286 -94.3417 215° Southwest 386 444 38,000 50 Climbing Fort Worth Center
Mon 05:05:51 PM 34.8469 -94.4103 215° Southwest 393 452 38,000 -50 Level Fort Worth Center
Mon 05:06:51 PM 34.7567 -94.4842 214° Southwest 393 452 37,900 -50 Descending Fort Worth Center
Mon 05:07:51 PM 34.6647 -94.5658 216° Southwest 398 458 37,900 50 Level Fort Worth Center
Mon 05:08:51 PM 34.5767 -94.6392 214° Southwest 398 458 38,000  Climbing Fort Worth Center
Mon 05:09:51 PM 34.4847 -94.7203 216° Southwest 398 458 37,900 -50 Descending Fort Worth Center
Mon 05:10:51 PM 34.3983 -94.7908 214° Southwest 393 452 37,900 50 Level Fort Worth Center
Mon 05:11:51 PM 34.3042 -94.8692 215° Southwest 398 458 38,000  Climbing Fort Worth Center
Mon 05:12:51 PM 34.2117 -94.9447 214° Southwest 398 458 37,900  Descending Fort Worth Center
Mon 05:13:51 PM 34.1194 -95.0228 215° Southwest 398 458 38,000  Climbing Fort Worth Center
Mon 05:14:51 PM 34.0308 -95.0953 214° Southwest 398 458 37,900 -50 Descending Fort Worth Center
Mon 05:15:51 PM 33.9383 -95.1703 214° Southwest 393 452 37,900 50 Level Fort Worth Center
Mon 05:16:51 PM 33.8458 -95.2453 214° Southwest 398 458 38,000  Climbing Fort Worth Center
Mon 05:17:51 PM 33.7531 -95.3200 214° Southwest 398 458 37,900 -50 Descending Fort Worth Center
Mon 05:18:51 PM 33.6647 -95.3944 215° Southwest 398 458 37,900  Level Fort Worth Center
Mon 05:19:51 PM 33.5739 -95.4664 213° Southwest 398 458 37,900  Level Fort Worth Center
Mon 05:20:51 PM 33.4833 -95.5381 213° Southwest 398 458 37,900  Level Fort Worth Center
Mon 05:21:51 PM 33.3925 -95.6097 213° Southwest 391 450 37,900  Level Fort Worth Center
Mon 05:22:51 PM 33.3058 -95.6836 215° Southwest 396 456 37,900  Level Fort Worth Center
Mon 05:23:51 PM 33.2128 -95.7547 213° Southwest 396 456 37,900  Level Fort Worth Center
Mon 05:24:51 PM 33.1242 -95.8308 216° Southwest 396 456 37,900 50 Level Fort Worth Center
Mon 05:25:51 PM 33.0289 -95.9044 213° Southwest 396 456 38,000 50 Climbing Fort Worth Center
Mon 05:26:51 PM 32.9317 -95.9853 215° Southwest 396 456 38,000 -50 Level Fort Worth Center
Mon 05:27:51 PM 32.8386 -96.0583 213° Southwest 396 456 37,900  Descending Fort Worth Center
Mon 05:28:51 PM 32.7456 -96.1289 213° Southwest 396 456 38,000  Climbing Fort Worth Center
Mon 05:29:51 PM 32.6544 -96.2044 215° Southwest 396 456 37,900 -50 Descending Fort Worth Center
Mon 05:30:51 PM 32.5631 -96.2769 214° Southwest 396 456 37,900  Level Fort Worth Center
Mon 05:31:51 PM 32.4697 -96.3497 213° Southwest 396 456 37,900 50 Level Fort Worth Center
Mon 05:32:51 PM 32.3786 -96.4197 213° Southwest 396 456 38,000  Climbing Fort Worth Center
Mon 05:33:51 PM 32.2975 -96.4844 214° Southwest 396 456 37,900 -500 Descending Fort Worth Center
Mon 05:34:51 PM 32.2000 -96.5467 208° Southwest 391 450 37,000 -950 Descending Fort Worth Center
Mon 05:35:51 PM 32.1044 -96.6139 211° Southwest 397 457 36,000 -950 Descending Fort Worth Center
Mon 05:36:51 PM 32.0108 -96.6758 209° Southwest 397 457 35,100 -950 Descending Fort Worth Center
Mon 05:37:51 PM 31.9067 -96.7503 211° Southwest 397 457 34,100 -1,000 Descending Fort Worth Center
Mon 05:38:51 PM 31.8089 -96.8119 208° Southwest 397 457 33,100 -1,000 Descending Fort Worth Center
Mon 05:39:51 PM 31.7133 -96.8786 211° Southwest 402 463 32,100 -1,450 Descending Fort Worth Center
Mon 05:40:51 PM 31.6111 -96.9450 209° Southwest 407 468 30,200 -2,133 Descending Fort Worth Center
Mon 05:42:06 PM 31.5014 -97.0172 209° Southwest 398 458 27,300 -2,321 Descending Houston Center
Mon 05:43:08 PM 31.4072 -97.0789 209° Southwest 386 444 24,900 -2,256 Descending Houston Center
Mon 05:44:11 PM 31.3164 -97.1389 209° Southwest 373 429 22,600 -2,352 Descending Houston Center
Mon 05:45:13 PM 31.2125 -97.2064 209° Southwest 364 419 20,000 -1,258 Descending Houston Center
Mon 05:46:15 PM 31.1178 -97.2453 199° South 357 411 20,000 -968 Level Houston Center
Mon 05:47:17 PM 31.0247 -97.2814 198° South 352 405 18,000 -2,032 Descending Houston Center
Mon 05:48:19 PM 30.9325 -97.3164 198° South 347 399 15,800 -2,177 Descending Houston Center
Mon 05:49:21 PM 30.8331 -97.3550 198° South 338 389 13,500 -2,274 Descending Houston Center
Mon 05:50:23 PM 30.7561 -97.4044 209° Southwest 320 368 11,100 -1,887 Descending Houston Center
Mon 05:51:25 PM 30.6872 -97.4619 216° Southwest 304 350 9,600 -1,694 Descending Houston Center
Mon 05:52:27 PM 30.6253 -97.5167 217° Southwest 284 327 7,600 -1,776 Descending Houston Center
Mon 05:53:30 PM 30.5647 -97.5689 217° Southwest 273 314 5,900 -1,632 Descending Houston Center
Mon 05:54:32 PM 30.5078 -97.6183 217° Southwest 260 299 4,200 -1,403 Descending Houston Center
Mon 05:55:34 PM 30.4422 -97.6436 198° South 249 287 3,000 -823 Descending Houston Center
Mon 05:56:36 PM 30.3711 -97.6742 200° South 237 273 2,500 -242 Descending Houston Center
Mon 05:57:38 PM 30.3211 -97.6828 188° South 201 231 2,500  Level Houston Center

Login

Don't have an account? Register now (free) for customized features, flight alerts, and more!